Time;durP1;ratioP1;P1;durP2;ratioP2;P2;SDS_P1;SDS_P2;PMS_P1;PMS_P2;Temp;Humidity;BMP_temperature;BMP_pressure;BME280_temperature;BME280_humidity;BME280_pressure;Samples;Min_cycle;Max_cycle;Signal;HPM_P1;HPM_P2
2023/08/21 00:02:04;;;;;;;5.80;5.30;;;;;;;27.74;38.26;100704.46;103825;1292;69189;-86
2023/08/21 00:04:30;;;;;;;7.10;4.90;;;;;;;27.73;38.27;100706.96;103842;1297;69253;-87
2023/08/21 00:09:29;;;;;;;5.80;5.20;;;;;;;27.73;38.35;100707.30;104095;1289;73063;-86
2023/08/21 00:11:54;;;;;;;5.60;5.00;;;;;;;27.72;38.41;100704.45;104009;1289;69185;-87
2023/08/21 00:14:20;;;;;;;5.40;4.90;;;;;;;27.72;38.40;100708.70;103994;1289;69204;-86
2023/08/21 00:16:45;;;;;;;5.50;5.00;;;;;;;27.72;38.58;100706.38;104018;1289;69657;-86
2023/08/21 00:19:11;;;;;;;8.00;5.40;;;;;;;27.72;38.49;100711.69;104098;1293;67680;-87
2023/08/21 00:21:36;;;;;;;6.90;5.30;;;;;;;27.72;38.50;100708.80;103826;1289;69260;-87
2023/08/21 00:24:02;;;;;;;5.60;4.90;;;;;;;27.72;38.66;100708.77;104046;1292;69788;-87
2023/08/21 00:26:27;;;;;;;6.80;4.80;;;;;;;27.71;38.64;100709.60;103977;1289;69231;-86
2023/08/21 00:28:53;;;;;;;6.80;5.30;;;;;;;27.71;38.63;100706.02;104034;1294;69188;-87
2023/08/21 00:31:18;;;;;;;6.20;5.20;;;;;;;27.71;38.66;100706.02;104030;1289;69195;-87
2023/08/21 00:33:44;;;;;;;6.00;5.10;;;;;;;27.71;38.78;100708.73;103788;1289;69224;-86
2023/08/21 00:36:09;;;;;;;5.40;4.90;;;;;;;27.71;38.76;100708.98;103972;1289;69208;-86
2023/08/21 00:38:35;;;;;;;5.90;5.30;;;;;;;27.71;38.75;100709.78;103998;1289;69193;-87
2023/08/21 00:41:00;;;;;;;6.30;5.20;;;;;;;27.70;38.83;100707.49;103840;1291;69293;-87
2023/08/21 00:43:26;;;;;;;5.70;5.10;;;;;;;27.71;38.92;100713.06;103972;1292;69129;-87
2023/08/21 00:45:59;;;;;;;6.40;5.30;;;;;;;27.70;38.89;100712.42;103962;1289;69250;-92
2023/08/21 00:48:25;;;;;;;6.20;5.60;;;;;;;27.70;38.88;100713.11;103888;1289;69202;-86
2023/08/21 00:50:50;;;;;;;5.80;5.20;;;;;;;27.70;38.95;100717.13;103919;1289;69204;-87
2023/08/21 00:53:16;;;;;;;6.20;5.60;;;;;;;27.70;39.07;100713.11;103969;1289;69250;-86
2023/08/21 00:55:42;;;;;;;6.20;5.60;;;;;;;27.69;39.09;100708.67;104008;1289;69282;-86
2023/08/21 00:58:12;;;;;;;7.50;5.20;;;;;;;27.69;39.17;100708.94;104048;1289;69268;-87
2023/08/21 01:00:38;;;;;;;6.30;5.20;;;;;;;27.69;39.16;100712.87;103820;1290;75082;-87
2023/08/21 01:03:04;;;;;;;6.80;5.50;;;;;;;27.69;39.19;100708.05;103791;1292;69227;-86
2023/08/21 01:05:29;;;;;;;5.70;5.20;;;;;;;27.69;39.22;100711.02;103876;1290;69699;-87
2023/08/21 01:08:03;;;;;;;7.00;5.60;;;;;;;27.69;39.25;100710.18;103707;1292;69373;-87
2023/08/21 01:10:43;;;;;;;7.80;5.70;;;;;;;27.68;39.30;100713.10;103852;1291;69103;-87
2023/08/21 01:13:26;;;;;;;6.50;5.80;;;;;;;27.68;39.35;100716.31;103721;1294;74630;-87
2023/08/21 01:15:52;;;;;;;6.40;5.50;;;;;;;27.67;39.43;100715.92;103758;1291;69596;-92
2023/08/21 01:18:18;;;;;;;5.60;4.90;;;;;;;27.67;39.33;100715.09;103645;1291;69132;-87
2023/08/21 01:20:43;;;;;;;7.70;5.70;;;;;;;27.67;39.40;100714.11;103733;1292;69387;-86
2023/08/21 01:23:09;;;;;;;6.00;5.40;;;;;;;27.67;39.57;100716.08;103659;1291;69275;-86
2023/08/21 01:25:35;;;;;;;5.80;5.20;;;;;;;27.67;39.48;100715.24;103803;1292;69718;-86
2023/08/21 01:28:00;;;;;;;7.60;5.70;;;;;;;27.66;39.54;100716.60;103798;1291;69222;-87
2023/08/21 01:30:27;;;;;;;7.90;5.80;;;;;;;27.66;39.53;100716.10;103600;1292;69186;-86
2023/08/21 01:33:00;;;;;;;6.90;6.20;;;;;;;27.66;39.55;100713.88;103820;1292;69327;-86
2023/08/21 01:35:26;;;;;;;6.00;5.40;;;;;;;27.66;39.65;100717.55;103739;1292;73340;-86
2023/08/21 01:37:51;;;;;;;6.10;5.50;;;;;;;27.66;39.69;100719.52;103820;1290;69193;-86
2023/08/21 01:40:23;;;;;;;7.60;5.80;;;;;;;27.66;39.53;100719.52;103822;1291;69262;-87
2023/08/21 01:42:49;;;;;;;6.80;5.50;;;;;;;27.65;39.56;100720.05;103791;1292;69186;-87
2023/08/21 01:45:14;;;;;;;6.80;5.60;;;;;;;27.66;39.59;100724.21;103659;1291;69247;-86
2023/08/21 01:47:40;;;;;;;7.60;5.40;;;;;;;27.65;39.64;100727.28;103790;1291;69218;-86
2023/08/21 01:50:06;;;;;;;6.40;5.40;;;;;;;27.65;39.75;100723.98;103790;1291;69276;-86
2023/08/21 01:52:31;;;;;;;7.80;6.00;;;;;;;27.65;39.80;100719.33;103786;1291;69224;-87
2023/08/21 01:54:57;;;;;;;7.00;5.90;;;;;;;27.65;39.83;100719.02;103814;1291;69158;-87
2023/08/21 01:57:23;;;;;;;6.00;5.40;;;;;;;27.65;39.83;100720.73;103705;1291;69224;-86
2023/08/21 01:59:48;;;;;;;6.80;5.70;;;;;;;27.65;39.84;100721.30;103792;1291;69274;-85
2023/08/21 02:02:14;;;;;;;6.80;6.10;;;;;;;27.64;39.87;100722.61;103806;1292;69258;-85
2023/08/21 02:04:39;;;;;;;6.60;5.80;;;;;;;27.64;39.96;100723.08;103931;1291;69359;-85
2023/08/21 02:07:05;;;;;;;6.90;6.20;;;;;;;27.64;40.04;100717.91;103936;1291;73551;-85
2023/08/21 02:09:48;;;;;;;5.90;5.30;;;;;;;27.64;39.85;100719.50;103850;1294;69271;-91
2023/08/21 02:12:13;;;;;;;6.80;5.90;;;;;;;27.63;40.05;100716.88;103730;1291;69253;-85
2023/08/21 02:14:39;;;;;;;9.00;6.00;;;;;;;27.63;40.06;100713.73;103901;1290;70442;-85
2023/08/21 02:17:05;;;;;;;9.60;6.20;;;;;;;27.63;40.04;100716.69;103910;1289;69223;-85
2023/08/21 02:19:31;;;;;;;6.10;5.60;;;;;;;27.63;40.01;100713.84;103792;1291;69343;-85
2023/08/21 02:21:56;;;;;;;6.60;6.00;;;;;;;27.63;40.04;100717.09;103858;1294;69174;-86
2023/08/21 02:24:22;;;;;;;7.80;5.90;;;;;;;27.63;40.22;100717.10;103789;1291;69262;-85
2023/08/21 02:26:47;;;;;;;6.20;5.60;;;;;;;27.62;40.21;100718.62;103977;1291;69137;-85
2023/08/21 02:29:13;;;;;;;6.80;5.70;;;;;;;27.62;40.11;100716.02;103958;1290;69206;-85
2023/08/21 02:31:38;;;;;;;8.10;6.40;;;;;;;27.62;40.22;100712.15;103964;1292;69125;-85
2023/08/21 02:34:04;;;;;;;8.00;6.10;;;;;;;27.61;40.21;100712.84;103923;1291;69713;-85
2023/08/21 02:36:37;;;;;;;7.70;6.20;;;;;;;27.61;40.13;100712.39;103926;1292;69253;-90
2023/08/21 02:39:03;;;;;;;7.00;5.90;;;;;;;27.61;40.22;100709.09;103810;1292;73630;-85
2023/08/21 02:41:29;;;;;;;6.80;5.90;;;;;;;27.61;40.31;100710.80;104123;1290;69208;-85
2023/08/21 02:43:54;;;;;;;7.30;5.90;;;;;;;27.61;40.28;100707.70;104849;1294;69722;-85
2023/08/21 02:46:20;;;;;;;7.40;6.60;;;;;;;27.61;40.42;100708.10;103953;1289;69318;-85
2023/08/21 02:48:45;;;;;;;6.80;6.00;;;;;;;27.61;40.30;100708.26;104042;1291;70172;-86
2023/08/21 02:51:11;;;;;;;6.60;5.90;;;;;;;27.61;40.30;100707.12;103546;1292;69235;-85
2023/08/21 02:53:36;;;;;;;7.00;6.10;;;;;;;27.61;40.34;100709.02;103974;1290;69263;-85
2023/08/21 02:56:02;;;;;;;9.10;6.30;;;;;;;27.61;40.40;100708.97;104144;1291;69346;-87
2023/08/21 02:58:27;;;;;;;8.70;6.40;;;;;;;27.61;40.39;100710.38;104010;1292;69141;-87
2023/08/21 03:00:53;;;;;;;7.10;5.80;;;;;;;27.60;40.45;100705.33;103988;1291;69263;-87
2023/08/21 03:03:35;;;;;;;10.30;6.40;;;;;;;27.61;40.34;100700.81;103837;1294;69266;-91
2023/08/21 03:06:01;;;;;;;7.40;5.90;;;;;;;27.60;40.42;100700.58;103907;1291;69094;-87
2023/08/21 03:08:27;;;;;;;7.30;5.70;;;;;;;27.60;40.49;100701.60;104043;1292;69256;-87
2023/08/21 03:10:52;;;;;;;6.90;6.20;;;;;;;27.59;40.46;100702.40;103929;1294;69198;-86
2023/08/21 03:13:18;;;;;;;8.50;5.90;;;;;;;27.60;40.54;100707.98;103981;1294;69260;-86
2023/08/21 03:15:43;;;;;;;9.10;5.90;;;;;;;27.60;40.53;100708.74;104219;1290;69220;-87
2023/08/21 03:18:09;;;;;;;8.20;6.50;;;;;;;27.60;40.57;100709.45;104146;1290;69264;-86
2023/08/21 03:20:35;;;;;;;18.30;13.70;;;;;;;27.61;40.76;100715.02;104582;1290;69199;-86
2023/08/21 03:23:00;;;;;;;26.80;24.00;;;;;;;27.60;40.87;100712.30;104546;1290;69260;-87
2023/08/21 03:25:27;;;;;;;23.20;19.70;;;;;;;27.60;40.78;100713.28;104753;1289;69212;-86
2023/08/21 03:27:53;;;;;;;23.20;20.30;;;;;;;27.61;40.77;100715.65;104253;1292;69190;-86
2023/08/21 03:30:19;;;;;;;19.30;16.40;;;;;;;27.60;40.80;100711.42;104681;1292;69249;-87
2023/08/21 03:32:45;;;;;;;20.40;15.70;;;;;;;27.60;40.91;100714.27;104237;1292;69265;-86
2023/08/21 03:35:10;;;;;;;23.40;20.30;;;;;;;27.60;40.87;100714.27;104487;1292;67103;-80
2023/08/21 03:37:36;;;;;;;29.30;25.20;;;;;;;27.60;40.85;100715.36;104613;1290;69745;-86
2023/08/21 03:40:06;;;;;;;20.00;15.90;;;;;;;27.59;40.88;100715.17;104172;1291;328221;-86
2023/08/21 03:42:32;;;;;;;18.30;13.50;;;;;;;27.59;40.98;100712.48;104286;1291;73808;-87
2023/08/21 03:44:57;;;;;;;15.30;12.50;;;;;;;27.59;41.03;100714.14;103916;1290;69351;-86
2023/08/21 03:47:23;;;;;;;14.80;9.90;;;;;;;27.58;40.99;100716.68;104215;1294;69279;-86
2023/08/21 03:49:49;;;;;;;12.60;9.10;;;;;;;27.58;41.05;100718.30;104344;1292;69247;-86
2023/08/21 03:52:14;;;;;;;12.70;8.70;;;;;;;27.58;41.06;100720.73;104054;1294;69339;-86
2023/08/21 03:54:40;;;;;;;9.70;8.00;;;;;;;27.57;41.16;100718.11;103958;1292;69222;-86
2023/08/21 03:59:48;;;;;;;11.20;7.30;;;;;;;27.56;41.27;100724.50;103971;1289;71840;-86
2023/08/21 04:02:14;;;;;;;11.20;7.40;;;;;;;27.55;41.33;100729.42;103951;1291;69216;-85
2023/08/21 04:04:39;;;;;;;11.60;7.30;;;;;;;27.54;41.19;100727.17;103939;1290;69244;-86
2023/08/21 04:07:06;;;;;;;10.60;6.70;;;;;;;27.54;41.37;100729.98;103925;1292;69245;-86
2023/08/21 04:09:31;;;;;;;9.60;6.90;;;;;;;27.53;41.32;100730.77;103893;1291;70082;-86
2023/08/21 04:11:56;;;;;;;10.50;7.10;;;;;;;27.52;41.23;100734.20;103945;1292;67115;-86
2023/08/21 04:14:22;;;;;;;9.30;6.90;;;;;;;27.51;41.24;100737.11;103785;1291;69147;-86
2023/08/21 04:16:48;;;;;;;10.10;6.90;;;;;;;27.51;41.21;100737.48;103857;1294;69314;-85
2023/08/21 04:19:13;;;;;;;11.20;6.80;;;;;;;27.50;41.13;100741.17;103841;1290;69233;-85
2023/08/21 04:21:39;;;;;;;9.40;6.70;;;;;;;27.49;41.18;100738.15;103823;1291;69301;-85
2023/08/21 04:24:14;;;;;;;11.40;6.60;;;;;;;27.49;41.15;100737.95;103805;1291;69282;-91
2023/08/21 04:26:39;;;;;;;7.20;6.20;;;;;;;27.47;41.11;100736.78;103779;1291;69286;-85
2023/08/21 04:29:05;;;;;;;8.80;6.40;;;;;;;27.47;41.15;100741.08;103933;1292;69279;-85
2023/08/21 04:31:30;;;;;;;10.20;6.10;;;;;;;27.46;41.05;100742.42;103798;1291;69234;-86
2023/08/21 04:33:56;;;;;;;7.90;6.80;;;;;;;27.46;41.10;100744.09;103761;1291;69256;-85
2023/08/21 04:36:21;;;;;;;13.30;7.00;;;;;;;27.45;41.17;100745.70;103798;1291;69199;-86
2023/08/21 04:38:46;;;;;;;10.50;7.00;;;;;;;27.44;41.15;100744.52;103536;1292;69370;-85
2023/08/21 04:41:12;;;;;;;12.90;6.60;;;;;;;27.44;41.12;100746.04;103888;1292;69170;-86
2023/08/21 04:43:37;;;;;;;9.70;6.70;;;;;;;27.43;41.20;100751.06;103832;1291;69550;-85
2023/08/21 04:46:03;;;;;;;10.00;6.60;;;;;;;27.43;41.06;100756.96;103907;1292;69288;-85
2023/08/21 04:48:29;;;;;;;11.70;6.90;;;;;;;27.42;41.11;100754.81;103785;1295;69269;-86
2023/08/21 04:53:37;;;;;;;9.70;6.60;;;;;;;27.41;41.10;100758.55;103695;1294;69169;-85
2023/08/21 04:56:03;;;;;;;10.60;6.40;;;;;;;27.41;41.17;100760.67;103701;1292;69282;-85
2023/08/21 04:58:29;;;;;;;9.70;6.30;;;;;;;27.41;41.20;100761.35;103860;1294;69298;-86
2023/08/21 05:00:54;;;;;;;8.80;6.60;;;;;;;27.41;41.22;100762.63;103941;1297;69324;-86
2023/08/21 05:03:20;;;;;;;11.60;6.70;;;;;;;27.41;41.23;100767.34;104608;1294;69135;-86
2023/08/21 05:08:31;;;;;;;9.80;6.30;;;;;;;27.41;41.28;100767.17;105357;1293;69183;-85
2023/08/21 05:10:57;;;;;;;9.90;6.90;;;;;;;27.42;41.32;100765.27;105019;1292;69280;-85
2023/08/21 05:13:23;;;;;;;6.00;5.10;;;;;;;27.42;41.33;100768.60;103670;1298;69265;-85
2023/08/21 05:15:55;;;;;;;7.00;5.30;;;;;;;27.43;41.30;100774.52;103805;1293;69213;-86
2023/08/21 05:18:21;;;;;;;11.50;7.20;;;;;;;27.43;41.29;100775.20;103887;1292;73600;-85
2023/08/21 05:23:21;;;;;;;12.10;7.20;;;;;;;27.38;41.19;100777.95;104124;1291;69094;-85
2023/08/21 05:25:47;;;;;;;14.50;7.50;;;;;;;27.34;41.17;100778.49;103746;1289;69315;-86
2023/08/21 05:28:13;;;;;;;12.30;7.20;;;;;;;27.30;41.21;100780.95;104115;1289;69106;-86
2023/08/21 05:30:38;;;;;;;18.80;7.90;;;;;;;27.28;41.24;100783.48;103963;1294;69315;-85
2023/08/21 05:33:04;;;;;;;13.30;7.70;;;;;;;27.25;41.32;100783.29;103817;1289;69301;-86
2023/08/21 05:35:35;;;;;;;15.70;7.70;;;;;;;27.23;41.39;100782.56;104228;1289;69345;-86
2023/08/21 05:38:02;;;;;;;12.10;7.50;;;;;;;27.19;41.42;100780.67;103938;1295;69275;-85
2023/08/21 05:40:28;;;;;;;11.20;7.80;;;;;;;27.17;41.54;100782.02;104086;1293;73464;-85
2023/08/21 05:42:53;;;;;;;13.80;7.60;;;;;;;27.16;41.56;100778.63;103908;1293;69283;-85
2023/08/21 05:45:18;;;;;;;12.60;7.70;;;;;;;27.14;41.46;100781.20;103782;1297;69385;-85
2023/08/21 05:47:48;;;;;;;13.20;7.20;;;;;;;27.14;41.52;100778.82;103871;1289;69256;-91
2023/08/21 05:50:14;;;;;;;13.80;7.30;;;;;;;27.13;41.44;100781.77;103924;1289;69187;-85
2023/08/21 05:52:40;;;;;;;11.50;7.90;;;;;;;27.13;41.55;100785.19;103941;1289;70040;-87
2023/08/21 05:55:05;;;;;;;13.50;7.20;;;;;;;27.13;41.55;100779.25;104012;1289;69294;-86
2023/08/21 05:57:31;;;;;;;10.90;7.50;;;;;;;27.13;41.55;100774.70;103946;1294;69286;-85
2023/08/21 05:59:56;;;;;;;12.90;7.30;;;;;;;27.14;41.55;100777.20;104116;1295;69241;-87
2023/08/21 06:02:24;;;;;;;11.10;6.90;;;;;;;27.13;41.51;100778.27;104079;1289;73325;-86
2023/08/21 06:04:54;;;;;;;14.80;7.00;;;;;;;27.14;41.29;100779.55;103926;1291;69095;-87
2023/08/21 06:07:19;;;;;;;13.70;7.10;;;;;;;27.13;41.26;100781.52;104117;1294;69189;-87
2023/08/21 06:09:44;;;;;;;13.20;6.70;;;;;;;27.14;41.33;100777.93;103982;1294;69317;-87
2023/08/21 06:12:10;;;;;;;14.00;6.70;;;;;;;27.16;41.13;100781.77;104049;1292;69214;-88
2023/08/21 06:17:15;;;;;;;10.40;7.40;;;;;;;27.19;41.11;100778.20;103934;1292;69256;-85
2023/08/21 06:19:41;;;;;;;12.40;6.70;;;;;;;27.21;40.97;100782.09;104194;1290;67560;-85
2023/08/21 06:22:07;;;;;;;11.90;6.30;;;;;;;27.23;40.99;100788.55;104634;1292;69194;-85
2023/08/21 06:24:35;;;;;;;12.10;7.50;;;;;;;27.24;41.10;100793.54;103936;1292;69250;-85
2023/08/21 06:27:01;;;;;;;11.30;6.60;;;;;;;27.26;40.95;100785.45;104066;1291;69732;-86
2023/08/21 06:29:27;;;;;;;12.90;7.00;;;;;;;27.28;40.88;100791.23;103956;1290;69268;-85
2023/08/21 06:31:52;;;;;;;17.20;8.00;;;;;;;27.29;40.92;100787.42;103978;1291;69229;-86
2023/08/21 06:34:18;;;;;;;14.80;7.30;;;;;;;27.32;40.92;100791.35;104049;1292;69073;-85
2023/08/21 06:36:44;;;;;;;11.00;6.90;;;;;;;27.33;40.89;100793.48;104135;1294;69257;-86
2023/08/21 06:39:10;;;;;;;13.00;7.30;;;;;;;27.34;40.97;100791.92;104442;1291;69204;-86
2023/08/21 06:41:45;;;;;;;13.80;7.40;;;;;;;27.37;40.98;100792.70;103848;1289;69231;-91
2023/08/21 06:44:11;;;;;;;10.40;6.90;;;;;;;27.38;41.07;100792.30;103663;1290;69099;-86
2023/08/21 06:46:36;;;;;;;11.60;6.60;;;;;;;27.41;41.03;100789.56;104013;1292;69205;-86
2023/08/21 06:49:02;;;;;;;13.40;6.60;;;;;;;27.43;41.03;100791.08;103888;1292;70394;-86
2023/08/21 06:51:28;;;;;;;13.40;6.90;;;;;;;27.45;40.78;100792.02;103873;1291;69298;-86
2023/08/21 06:53:53;;;;;;;12.60;6.90;;;;;;;27.46;40.84;100791.58;104055;1292;69275;-86
2023/08/21 06:56:19;;;;;;;9.40;6.70;;;;;;;27.49;40.63;100792.40;103751;1290;69193;-86
2023/08/21 06:58:44;;;;;;;10.10;6.30;;;;;;;27.51;40.53;100795.06;104057;1291;69218;-86
2023/08/21 07:01:09;;;;;;;12.00;6.30;;;;;;;27.53;40.48;100793.00;103881;1294;69231;-85
2023/08/21 07:03:35;;;;;;;9.80;6.40;;;;;;;27.55;40.28;100794.92;103981;1294;69262;-86
2023/08/21 07:06:01;;;;;;;10.60;6.80;;;;;;;27.57;40.22;100793.64;103895;1292;69601;-86
2023/08/21 07:08:42;;;;;;;9.80;6.60;;;;;;;27.58;40.16;100796.95;103792;1292;69183;-91
2023/08/21 07:11:09;;;;;;;9.30;5.80;;;;;;;27.61;40.06;100800.17;103679;1292;69203;-86
2023/08/21 07:13:35;;;;;;;11.30;6.80;;;;;;;27.63;39.88;100799.18;103967;1291;69124;-86
2023/08/21 07:16:05;;;;;;;13.40;7.00;;;;;;;27.65;39.79;100794.54;104110;1292;69344;-86
2023/08/21 07:18:34;;;;;;;10.00;7.00;;;;;;;27.68;39.64;100794.23;103925;1293;73318;-86
2023/08/21 07:21:00;;;;;;;12.40;8.40;;;;;;;27.69;39.73;100794.39;103875;1294;68937;-86
2023/08/21 07:23:34;;;;;;;15.80;11.90;;;;;;;27.71;39.60;100791.40;103815;1295;69208;-91
2023/08/21 07:26:00;;;;;;;14.00;10.90;;;;;;;27.73;39.47;100788.92;104066;1292;69024;-84
2023/08/21 07:28:26;;;;;;;19.90;13.90;;;;;;;27.75;39.31;100791.16;104040;1291;69260;-85
2023/08/21 07:30:56;;;;;;;18.10;13.40;;;;;;;27.77;39.21;100790.36;103980;1292;69350;-84
2023/08/21 07:33:22;;;;;;;18.90;13.50;;;;;;;27.81;39.08;100787.98;104371;1294;69254;-85
2023/08/21 07:35:47;;;;;;;17.10;11.80;;;;;;;27.83;38.86;100789.46;104063;1291;69239;-85
2023/08/21 07:38:13;;;;;;;12.20;10.00;;;;;;;27.85;38.82;100794.80;104000;1292;70396;-85
2023/08/21 07:40:38;;;;;;;12.80;10.10;;;;;;;27.85;38.87;100790.89;103952;1292;69486;-85
2023/08/21 07:43:04;;;;;;;12.40;8.60;;;;;;;27.87;38.88;100795.52;103976;1291;69279;-85
2023/08/21 07:45:29;;;;;;;11.90;7.60;;;;;;;27.89;38.73;100795.13;103950;1291;69269;-85
2023/08/21 07:47:55;;;;;;;11.40;6.90;;;;;;;27.91;38.76;100793.42;103935;1291;70271;-85
2023/08/21 07:50:30;;;;;;;9.30;5.90;;;;;;;27.94;38.74;100796.39;103931;1291;69265;-90
2023/08/21 07:52:55;;;;;;;13.00;7.30;;;;;;;27.95;38.49;100791.19;103728;1292;74010;-85
2023/08/21 07:55:20;;;;;;;11.90;7.00;;;;;;;27.99;38.40;100799.23;104107;1292;69247;-85
2023/08/21 07:57:46;;;;;;;8.70;6.90;;;;;;;28.00;38.43;100792.41;104109;1291;69409;-84
2023/08/21 08:00:13;;;;;;;10.80;6.90;;;;;;;28.01;38.38;100788.55;104201;1294;67639;-85
2023/08/21 08:02:40;;;;;;;10.60;6.70;;;;;;;28.03;38.38;100789.45;103925;1291;70875;-84
2023/08/21 08:05:06;;;;;;;10.20;6.30;;;;;;;28.06;38.40;100790.14;103803;1292;69161;-85
2023/08/21 08:07:31;;;;;;;13.00;7.00;;;;;;;28.10;38.23;100792.20;104145;1294;69217;-85
2023/08/21 08:09:57;;;;;;;7.60;6.00;;;;;;;28.11;38.15;100788.09;103880;1294;69260;-85
2023/08/21 08:12:22;;;;;;;9.80;6.00;;;;;;;28.12;38.06;100785.40;104018;1294;69180;-85
2023/08/21 08:14:48;;;;;;;6.80;5.60;;;;;;;28.15;37.75;100783.28;104013;1291;69200;-85
2023/08/21 08:17:22;;;;;;;6.70;5.90;;;;;;;28.19;37.58;100784.77;103891;1291;69200;-90
2023/08/21 08:19:48;;;;;;;12.30;6.00;;;;;;;28.22;37.44;100779.53;103911;1292;69203;-85
2023/08/21 08:22:13;;;;;;;7.40;6.50;;;;;;;28.24;37.41;100784.13;103905;1292;69276;-85
2023/08/21 08:24:39;;;;;;;10.40;6.90;;;;;;;28.26;37.31;100786.89;103911;1294;69356;-85
2023/08/21 08:27:04;;;;;;;7.60;6.30;;;;;;;28.26;37.34;100782.79;103918;1294;69151;-85
2023/08/21 08:29:30;;;;;;;14.20;7.10;;;;;;;28.26;37.48;100780.41;103920;1292;69197;-85
2023/08/21 08:31:55;;;;;;;9.40;6.70;;;;;;;28.27;37.43;100779.08;103828;1291;69269;-85
2023/08/21 08:34:21;;;;;;;9.90;6.30;;;;;;;28.29;37.38;100782.05;103915;1292;70517;-85
2023/08/21 08:36:46;;;;;;;12.40;6.80;;;;;;;28.29;37.40;100782.81;104113;1297;69209;-85
2023/08/21 08:39:12;;;;;;;7.90;6.10;;;;;;;28.30;37.31;100777.77;104165;1292;69276;-85
2023/08/21 08:42:02;;;;;;;8.20;6.20;;;;;;;28.30;37.48;100777.36;104217;1294;69267;-85
2023/08/21 08:44:28;;;;;;;8.80;6.10;;;;;;;28.31;37.38;100777.02;104139;1290;69126;-85
2023/08/21 08:46:53;;;;;;;9.20;5.80;;;;;;;28.32;37.36;100772.39;104012;1292;69307;-85
2023/08/21 08:49:20;;;;;;;10.80;6.70;;;;;;;28.33;37.21;100772.06;104053;1291;69159;-85
2023/08/21 08:51:45;;;;;;;8.50;7.30;;;;;;;28.33;37.23;100769.83;103950;1289;67909;-85
2023/08/21 08:54:11;;;;;;;10.70;6.70;;;;;;;28.35;37.26;100771.70;103919;1294;70731;-85
2023/08/21 08:56:37;;;;;;;10.00;7.60;;;;;;;28.35;37.20;100766.88;103928;1292;70381;-85
2023/08/21 09:01:36;;;;;;;10.10;7.90;;;;;;;28.37;37.09;100758.14;104106;1291;69128;-85
2023/08/21 09:04:02;;;;;;;9.00;7.10;;;;;;;28.41;37.12;100754.55;103806;1291;69329;-84
2023/08/21 09:06:28;;;;;;;10.00;6.80;;;;;;;28.44;36.97;100752.45;104240;1290;69169;-85
2023/08/21 09:08:54;;;;;;;7.20;6.20;;;;;;;28.45;36.87;100750.67;104165;1292;69252;-85
2023/08/21 09:11:20;;;;;;;9.10;6.00;;;;;;;28.46;36.81;100752.35;103975;1291;69228;-84
2023/08/21 09:13:46;;;;;;;9.70;6.20;;;;;;;28.48;36.80;100748.52;103785;1292;71196;-84
2023/08/21 09:16:11;;;;;;;12.10;6.30;;;;;;;28.48;36.75;100749.81;103697;1292;69258;-84
2023/08/21 09:18:38;;;;;;;7.80;5.90;;;;;;;28.49;36.84;100750.32;103633;1292;69301;-85
2023/08/21 09:21:03;;;;;;;8.20;6.50;;;;;;;28.49;36.94;100746.37;103951;1291;69342;-85
2023/08/21 09:23:29;;;;;;;8.40;6.10;;;;;;;28.51;36.47;100741.36;103855;1297;69253;-85
2023/08/21 09:28:28;;;;;;;12.40;6.80;;;;;;;28.54;36.56;100740.85;103993;1294;69154;-85
2023/08/21 09:30:54;;;;;;;8.60;6.20;;;;;;;28.57;36.54;100737.27;103786;1291;69230;-86
2023/08/21 09:33:21;;;;;;;7.60;6.40;;;;;;;28.59;36.58;100734.23;103906;1291;69394;-86
2023/08/21 09:35:47;;;;;;;7.50;6.10;;;;;;;28.60;36.72;100731.67;104194;1290;69253;-86
2023/08/21 09:38:14;;;;;;;7.60;6.30;;;;;;;28.61;36.51;100724.01;103938;1290;69145;-86
2023/08/21 09:40:43;;;;;;;7.90;5.60;;;;;;;28.62;36.62;100723.60;104117;1289;69399;-86
2023/08/21 09:43:11;;;;;;;6.90;5.90;;;;;;;28.64;36.73;100723.95;104151;1291;73444;-85
2023/08/21 09:45:36;;;;;;;7.70;6.00;;;;;;;28.66;36.65;100719.61;104089;1291;69151;-85
2023/08/21 09:48:03;;;;;;;6.60;5.90;;;;;;;28.67;36.78;100714.05;104094;1294;67357;-86
2023/08/21 09:50:29;;;;;;;7.20;6.50;;;;;;;28.67;36.76;100709.61;104918;1291;69200;-86
2023/08/21 09:52:54;;;;;;;7.50;6.10;;;;;;;28.68;36.59;100709.20;104077;1291;69501;-86
2023/08/21 09:55:20;;;;;;;10.60;6.00;;;;;;;28.70;36.61;100705.22;103843;1292;72979;-86
2023/08/21 09:57:46;;;;;;;10.30;6.50;;;;;;;28.72;36.48;100705.98;103950;1288;69596;-85
2023/08/21 10:00:20;;;;;;;8.50;6.00;;;;;;;28.77;36.49;100705.95;103992;1291;66531;-85
2023/08/21 10:02:49;;;;;;;9.10;6.30;;;;;;;28.83;35.92;100703.72;104217;1294;69165;-85
2023/08/21 10:05:16;;;;;;;11.80;10.10;;;;;;;28.86;35.98;100701.26;104104;1289;74353;-86
2023/08/21 10:07:42;;;;;;;17.50;15.60;;;;;;;28.87;35.86;100694.27;103951;1294;69221;-86
2023/08/21 10:10:08;;;;;;;16.90;14.60;;;;;;;28.88;36.09;100686.49;103735;1293;69289;-85
2023/08/21 10:12:33;;;;;;;19.90;15.10;;;;;;;28.88;36.08;100687.06;104355;1291;69348;-85
2023/08/21 10:14:59;;;;;;;18.30;15.60;;;;;;;28.88;35.87;100682.51;104074;1291;69254;-85
2023/08/21 10:17:25;;;;;;;22.20;15.90;;;;;;;28.89;35.75;100686.48;104777;1291;66856;-86
2023/08/21 10:19:53;;;;;;;17.50;13.00;;;;;;;28.92;35.76;100687.06;104464;1291;69257;-87
2023/08/21 10:22:47;;;;;;;17.20;11.90;;;;;;;28.93;35.63;100687.11;104041;1291;69049;-86
2023/08/21 10:25:20;;;;;;;12.80;10.50;;;;;;;28.90;35.75;100681.02;104212;1291;69179;-86
2023/08/21 10:27:45;;;;;;;12.60;9.70;;;;;;;28.90;35.70;100678.71;104092;1293;74439;-86
2023/08/21 10:30:15;;;;;;;11.70;9.80;;;;;;;28.88;35.79;100679.39;103636;1291;69207;-86
2023/08/21 10:32:48;;;;;;;14.90;11.40;;;;;;;28.87;35.94;100674.60;104075;1290;69135;-86
2023/08/21 10:35:24;;;;;;;10.70;9.60;;;;;;;28.86;35.82;100670.51;104097;1291;69558;-86
2023/08/21 10:38:12;;;;;;;12.30;9.10;;;;;;;28.86;35.68;100663.13;103934;1290;69364;-87
2023/08/21 10:43:51;;;;;;;10.10;8.00;;;;;;;28.86;35.76;100653.46;104357;1289;69126;-85
2023/08/21 10:46:16;;;;;;;11.40;7.30;;;;;;;28.88;35.62;100651.60;103989;1288;69132;-85
2023/08/21 10:48:42;;;;;;;8.00;6.50;;;;;;;28.89;35.57;100651.31;103966;1293;69250;-85
2023/08/21 10:51:08;;;;;;;8.40;6.10;;;;;;;28.90;35.47;100652.35;104301;1287;69227;-85
2023/08/21 10:53:34;;;;;;;7.70;6.90;;;;;;;28.91;35.47;100647.77;104259;1291;69110;-85
2023/08/21 10:56:03;;;;;;;9.70;6.10;;;;;;;28.91;35.39;100649.61;103898;1288;69669;-86
2023/08/21 11:01:14;;;;;;;11.10;5.80;;;;;;;28.89;35.78;100650.98;104114;1291;69133;-86
2023/08/21 11:03:40;;;;;;;10.70;6.30;;;;;;;28.87;35.77;100647.27;104130;1291;69364;-85
2023/08/21 11:06:10;;;;;;;6.40;5.20;;;;;;;28.85;35.90;100649.20;104131;1294;68385;-85
2023/08/21 11:08:36;;;;;;;7.60;6.10;;;;;;;28.85;36.13;100644.79;103766;1293;69168;-86
2023/08/21 11:11:04;;;;;;;7.30;5.60;;;;;;;28.85;36.01;100643.86;103939;1294;69291;-85
2023/08/21 11:13:29;;;;;;;9.80;5.80;;;;;;;28.83;36.01;100645.73;103764;1296;69240;-85
2023/08/21 11:16:05;;;;;;;9.10;6.10;;;;;;;28.82;35.96;100646.90;104522;1287;553697;-85
2023/08/21 11:18:31;;;;;;;8.80;6.00;;;;;;;28.82;35.93;100650.99;104165;1289;73458;-85
2023/08/21 11:21:05;;;;;;;9.00;5.80;;;;;;;28.83;35.94;100652.82;104322;1291;69097;-85
2023/08/21 11:23:34;;;;;;;7.60;5.80;;;;;;;28.83;35.98;100653.13;104315;1289;69152;-85
2023/08/21 11:26:01;;;;;;;7.80;5.80;;;;;;;28.82;36.04;100645.05;104358;1289;69186;-85
2023/08/21 11:31:06;;;;;;;6.40;5.50;;;;;;;28.78;36.11;100643.95;105084;1294;74515;-85
2023/08/21 11:33:32;;;;;;;11.70;5.80;;;;;;;28.77;35.90;100648.28;105224;1291;69197;-85
2023/08/21 11:35:58;;;;;;;10.80;5.80;;;;;;;28.78;36.03;100649.80;105279;1291;67786;-85
2023/08/21 11:38:25;;;;;;;13.10;6.90;;;;;;;28.78;36.13;100647.15;105688;1291;68055;-86
2023/08/21 11:40:59;;;;;;;13.70;6.90;;;;;;;28.79;36.97;100641.95;105201;1292;67140;-85